Main page
METAR-TAF:

METAR-TAF

Airports :

Baghdad International Airport

Baghdad, Iraq

latitude: 33-15-45N, longitude: 44-14-04E, elevation: 35 m

Current weather observation

The report was made 27 minutes ago, at 02:00 UTC
Wind 9 kt from the East
Temperature 10°C
Humidity 100%
Pressure 1014 hPa
Visibility 10 km or more
Overcast at a height of 3000 ft
light rain

METAR: ORBI 220200Z 09009KT 9999 -RA OVC030 10/10 Q1014 TEMPO 1500 BR

Time: 05:27 (02:27 UTC)

Forecast

The report was made 3 hours and 27 minutes ago, at 23:00 UTC
Forecast valid from 22 at 00 UTC to 22 at 24 UTC
Wind 8 kt from the East
Visibility: 7000 m
Broken clouds at a height of 3000 ft
Temporary
from 22 at 00 UTC to 22 at 18 UTC
Visibility: 4000 m
mist, rain showers
Probability 40%
from 22 at 01 UTC to 22 at 06 UTC
Visibility: 1800 m
Few clouds at a height of 2500 ft, Cumulonimbus.
mist, thunderstorm, (light

TAF: ORBI 212300Z 2200/2224 08008KT 7000 BKN030 TEMPO 2200/2218 4000 BR SHRA PROB40 2201/2206 1800 BR -TS FEW025CB

Weather observations and forecasts of more than 4000 airports (METAR and TAF reports).

The available stations are represented by yellow and red dots on the map.

Hover mouse over dot to see the name of the station.

Then click to see weather observations and forecasts.

To change the map : click on the green buttons with a black cross to zoom in, on the green button with a dash to zoom out, or on the green arrows for adjacent maps.


METAR-TAF: